sensor_id;sensor_type;location;lat;lon;timestamp;pressure;altitude;pressure_sealevel;temperature;humidity
72409;BME280;60402;48.082;11.628;2024-03-22T00:02:32;96048.94;;;5.42;100.00
72409;BME280;60402;48.082;11.628;2024-03-22T00:05:17;96080.16;;;5.55;100.00
72409;BME280;60402;48.082;11.628;2024-03-22T00:08:03;96064.97;;;5.52;100.00
72409;BME280;60402;48.082;11.628;2024-03-22T00:10:52;96056.13;;;5.43;100.00
72409;BME280;60402;48.082;11.628;2024-03-22T00:13:37;96056.94;;;5.54;100.00
72409;BME280;60402;48.082;11.628;2024-03-22T00:16:23;96028.06;;;5.25;100.00
72409;BME280;60402;48.082;11.628;2024-03-22T00:19:09;96048.50;;;5.40;100.00
72409;BME280;60402;48.082;11.628;2024-03-22T00:21:54;96056.09;;;5.36;100.00
72409;BME280;60402;48.082;11.628;2024-03-22T00:24:40;96067.34;;;5.39;100.00
72409;BME280;60402;48.082;11.628;2024-03-22T00:27:26;96063.72;;;5.39;100.00
72409;BME280;60402;48.082;11.628;2024-03-22T00:30:12;96054.50;;;5.24;100.00
72409;BME280;60402;48.082;11.628;2024-03-22T00:32:57;96066.09;;;5.30;100.00
72409;BME280;60402;48.082;11.628;2024-03-22T00:35:43;96050.09;;;5.23;100.00
72409;BME280;60402;48.082;11.628;2024-03-22T00:38:29;96043.66;;;5.16;100.00
72409;BME280;60402;48.082;11.628;2024-03-22T00:41:14;96052.88;;;5.20;100.00
72409;BME280;60402;48.082;11.628;2024-03-22T00:44:00;96055.66;;;5.20;100.00
72409;BME280;60402;48.082;11.628;2024-03-22T00:46:46;96049.66;;;5.14;100.00
72409;BME280;60402;48.082;11.628;2024-03-22T00:49:31;96029.66;;;5.26;100.00
72409;BME280;60402;48.082;11.628;2024-03-22T00:52:17;96033.25;;;5.20;100.00
72409;BME280;60402;48.082;11.628;2024-03-22T00:55:03;96033.66;;;5.18;100.00
72409;BME280;60402;48.082;11.628;2024-03-22T00:57:49;96016.00;;;5.07;100.00
72409;BME280;60402;48.082;11.628;2024-03-22T01:00:35;96007.19;;;5.01;100.00
72409;BME280;60402;48.082;11.628;2024-03-22T01:03:22;96039.25;;;5.15;100.00
72409;BME280;60402;48.082;11.628;2024-03-22T01:06:08;96031.19;;;5.02;100.00
72409;BME280;60402;48.082;11.628;2024-03-22T01:08:54;96027.19;;;4.96;100.00
72409;BME280;60402;48.082;11.628;2024-03-22T01:11:40;96011.53;;;4.88;100.00
72409;BME280;60402;48.082;11.628;2024-03-22T01:14:25;96010.75;;;4.91;100.00
72409;BME280;60402;48.082;11.628;2024-03-22T01:17:11;96002.75;;;4.86;100.00
72409;BME280;60402;48.082;11.628;2024-03-22T01:19:57;96016.34;;;4.87;100.00
72409;BME280;60402;48.082;11.628;2024-03-22T01:22:43;96003.94;;;4.81;100.00
72409;BME280;60402;48.082;11.628;2024-03-22T01:25:28;96019.94;;;4.81;100.00
72409;BME280;60402;48.082;11.628;2024-03-22T01:28:14;96000.72;;;4.76;100.00
72409;BME280;60402;48.082;11.628;2024-03-22T01:31:00;95990.69;;;4.68;100.00
72409;BME280;60402;48.082;11.628;2024-03-22T01:33:46;95989.84;;;4.60;100.00
72409;BME280;60402;48.082;11.628;2024-03-22T01:36:32;95977.03;;;4.55;100.00
72409;BME280;60402;48.082;11.628;2024-03-22T01:39:21;95998.66;;;4.66;100.00
72409;BME280;60402;48.082;11.628;2024-03-22T01:42:07;95989.44;;;4.65;100.00
72409;BME280;60402;48.082;11.628;2024-03-22T01:44:52;95995.06;;;4.61;100.00
72409;BME280;60402;48.082;11.628;2024-03-22T01:47:38;95988.63;;;4.54;100.00
72409;BME280;60402;48.082;11.628;2024-03-22T01:50:24;95975.03;;;4.59;100.00
72409;BME280;60402;48.082;11.628;2024-03-22T01:53:10;95980.63;;;4.56;100.00
72409;BME280;60402;48.082;11.628;2024-03-22T01:55:55;95969.78;;;4.44;100.00
72409;BME280;60402;48.082;11.628;2024-03-22T01:58:41;95977.41;;;4.50;100.00
72409;BME280;60402;48.082;11.628;2024-03-22T02:01:27;95984.63;;;4.55;100.00
72409;BME280;60402;48.082;11.628;2024-03-22T02:04:13;95969.41;;;4.49;100.00
72409;BME280;60402;48.082;11.628;2024-03-22T02:07:00;95964.16;;;4.40;100.00
72409;BME280;60402;48.082;11.628;2024-03-22T02:09:45;95979.41;;;4.53;100.00
72409;BME280;60402;48.082;11.628;2024-03-22T02:12:31;95967.78;;;4.44;100.00
72409;BME280;60402;48.082;11.628;2024-03-22T02:15:16;95973.41;;;4.51;100.00
72409;BME280;60402;48.082;11.628;2024-03-22T02:18:02;95946.94;;;4.31;100.00
72409;BME280;60402;48.082;11.628;2024-03-22T02:20:48;95946.16;;;4.34;100.00
72409;BME280;60402;48.082;11.628;2024-03-22T02:23:38;95965.38;;;4.43;100.00
72409;BME280;60402;48.082;11.628;2024-03-22T02:26:23;95940.94;;;4.29;100.00
72409;BME280;60402;48.082;11.628;2024-03-22T02:29:09;95950.56;;;4.39;100.00
72409;BME280;60402;48.082;11.628;2024-03-22T02:31:55;95961.38;;;4.40;100.00
72409;BME280;60402;48.082;11.628;2024-03-22T02:34:40;95946.09;;;4.23;100.00
72409;BME280;60402;48.082;11.628;2024-03-22T02:37:26;95913.22;;;4.02;100.00
72409;BME280;60402;48.082;11.628;2024-03-22T02:40:13;95940.47;;;4.16;100.00
72409;BME280;60402;48.082;11.628;2024-03-22T02:42:59;95955.28;;;4.20;100.00
72409;BME280;60402;48.082;11.628;2024-03-22T02:45:45;95937.25;;;4.10;100.00
72409;BME280;60402;48.082;11.628;2024-03-22T02:48:31;95929.97;;;3.99;100.00
72409;BME280;60402;48.082;11.628;2024-03-22T02:51:17;95934.00;;;4.01;100.00
72409;BME280;60402;48.082;11.628;2024-03-22T02:54:02;95924.75;;;3.94;100.00
72409;BME280;60402;48.082;11.628;2024-03-22T02:56:48;95936.38;;;3.99;100.00
72409;BME280;60402;48.082;11.628;2024-03-22T02:59:34;95929.16;;;3.91;100.00
72409;BME280;60402;48.082;11.628;2024-03-22T03:02:19;95940.75;;;3.97;100.00
72409;BME280;60402;48.082;11.628;2024-03-22T03:05:05;95928.31;;;3.87;100.00
72409;BME280;60402;48.082;11.628;2024-03-22T03:07:51;95924.31;;;3.84;100.00
72409;BME280;60402;48.082;11.628;2024-03-22T03:10:37;95899.09;;;3.74;100.00
72409;BME280;60402;48.082;11.628;2024-03-22T03:13:22;95920.75;;;3.88;100.00
72409;BME280;60402;48.082;11.628;2024-03-22T03:16:08;95909.91;;;3.79;100.00
72409;BME280;60402;48.082;11.628;2024-03-22T03:18:54;95890.69;;;3.74;100.00
72409;BME280;60402;48.082;11.628;2024-03-22T03:21:39;95891.47;;;3.71;100.00
72409;BME280;60402;48.082;11.628;2024-03-22T03:24:25;95909.13;;;3.82;100.00
72409;BME280;60402;48.082;11.628;2024-03-22T03:27:11;95907.06;;;3.75;100.00
72409;BME280;60402;48.082;11.628;2024-03-22T03:29:57;95889.81;;;3.59;100.00
72409;BME280;60402;48.082;11.628;2024-03-22T03:32:43;95890.66;;;3.63;100.00
72409;BME280;60402;48.082;11.628;2024-03-22T03:35:28;95909.84;;;3.68;100.00
72409;BME280;60402;48.082;11.628;2024-03-22T03:38:14;95880.97;;;3.50;100.00
72409;BME280;60402;48.082;11.628;2024-03-22T03:41:00;95890.56;;;3.49;100.00
72409;BME280;60402;48.082;11.628;2024-03-22T03:43:46;95868.91;;;3.39;100.00
72409;BME280;60402;48.082;11.628;2024-03-22T03:46:31;95906.94;;;3.57;100.00
72409;BME280;60402;48.082;11.628;2024-03-22T03:49:17;95882.53;;;3.47;100.00
72409;BME280;60402;48.082;11.628;2024-03-22T03:52:03;95882.53;;;3.47;100.00
72409;BME280;60402;48.082;11.628;2024-03-22T03:54:48;95889.31;;;3.46;100.00
72409;BME280;60402;48.082;11.628;2024-03-22T03:57:34;95890.56;;;3.49;100.00
72409;BME280;60402;48.082;11.628;2024-03-22T04:00:20;95875.72;;;3.41;100.00
72409;BME280;60402;48.082;11.628;2024-03-22T04:03:05;95880.13;;;3.46;100.00
72409;BME280;60402;48.082;11.628;2024-03-22T04:05:57;95862.13;;;3.36;100.00
72409;BME280;60402;48.082;11.628;2024-03-22T04:08:43;95845.66;;;3.24;100.00
72409;BME280;60402;48.082;11.628;2024-03-22T04:11:29;95868.91;;;3.35;100.00
72409;BME280;60402;48.082;11.628;2024-03-22T04:14:15;95882.06;;;3.38;100.00
72409;BME280;60402;48.082;11.628;2024-03-22T04:17:00;95879.31;;;3.42;100.00
72409;BME280;60402;48.082;11.628;2024-03-22T04:19:46;95874.91;;;3.41;100.00
72409;BME280;60402;48.082;11.628;2024-03-22T04:22:31;95863.69;;;3.30;100.00
72409;BME280;60402;48.082;11.628;2024-03-22T04:25:17;95851.25;;;3.24;100.00
72409;BME280;60402;48.082;11.628;2024-03-22T04:28:03;95854.09;;;3.31;100.00
72409;BME280;60402;48.082;11.628;2024-03-22T04:31:03;95830.88;;;3.16;100.00
72409;BME280;60402;48.082;11.628;2024-03-22T04:33:49;95836.41;;;3.13;100.00
72409;BME280;60402;48.082;11.628;2024-03-22T04:36:34;95844.41;;;3.14;100.00
72409;BME280;60402;48.082;11.628;2024-03-22T04:39:20;95849.97;;;3.14;100.00
72409;BME280;60402;48.082;11.628;2024-03-22T04:42:06;95843.56;;;3.10;100.00
72409;BME280;60402;48.082;11.628;2024-03-22T04:44:52;95840.00;;;3.13;100.00
72409;BME280;60402;48.082;11.628;2024-03-22T04:47:38;95853.66;;;3.25;100.00
72409;BME280;60402;48.082;11.628;2024-03-22T04:50:23;95854.47;;;3.26;100.00
72409;BME280;60402;48.082;11.628;2024-03-22T04:53:09;95853.66;;;3.25;100.00
72409;BME280;60402;48.082;11.628;2024-03-22T04:55:54;95857.28;;;3.33;100.00
72409;BME280;60402;48.082;11.628;2024-03-22T04:58:40;95862.53;;;3.38;100.00
72409;BME280;60402;48.082;11.628;2024-03-22T05:01:26;95867.75;;;3.43;100.00
72409;BME280;60402;48.082;11.628;2024-03-22T05:04:12;95863.78;;;3.48;100.00
72409;BME280;60402;48.082;11.628;2024-03-22T05:06:57;95850.25;;;3.50;100.00
72409;BME280;60402;48.082;11.628;2024-03-22T05:09:43;95852.63;;;3.51;100.00
72409;BME280;60402;48.082;11.628;2024-03-22T05:12:28;95855.44;;;3.51;100.00
72409;BME280;60402;48.082;11.628;2024-03-22T05:15:14;95850.28;;;3.53;100.00
72409;BME280;60402;48.082;11.628;2024-03-22T05:18:00;95852.69;;;3.62;100.00
72409;BME280;60402;48.082;11.628;2024-03-22T05:20:46;95847.13;;;3.66;100.00
72409;BME280;60402;48.082;11.628;2024-03-22T05:23:31;95849.97;;;3.76;100.00
72409;BME280;60402;48.082;11.628;2024-03-22T05:26:17;95842.03;;;3.82;100.00
72409;BME280;60402;48.082;11.628;2024-03-22T05:29:06;95842.50;;;3.98;100.00
72409;BME280;60402;48.082;11.628;2024-03-22T05:31:51;95847.78;;;4.14;100.00
72409;BME280;60402;48.082;11.628;2024-03-22T05:34:37;95854.59;;;4.24;100.00
72409;BME280;60402;48.082;11.628;2024-03-22T05:37:23;95849.44;;;4.36;100.00
72409;BME280;60402;48.082;11.628;2024-03-22T05:40:09;95853.47;;;4.50;100.00
72409;BME280;60402;48.082;11.628;2024-03-22T05:42:55;95827.88;;;4.51;100.00
72409;BME280;60402;48.082;11.628;2024-03-22T05:45:41;95835.91;;;4.67;100.00
72409;BME280;60402;48.082;11.628;2024-03-22T05:48:27;95825.09;;;4.66;100.00
72409;BME280;60402;48.082;11.628;2024-03-22T05:51:14;95840.34;;;4.86;100.00
72409;BME280;60402;48.082;11.628;2024-03-22T05:53:59;95823.53;;;4.82;100.00
72409;BME280;60402;48.082;11.628;2024-03-22T05:56:45;95830.75;;;4.94;100.00
72409;BME280;60402;48.082;11.628;2024-03-22T05:59:31;95821.53;;;4.97;100.00
72409;BME280;60402;48.082;11.628;2024-03-22T06:02:17;95824.34;;;5.04;100.00
72409;BME280;60402;48.082;11.628;2024-03-22T06:05:03;95818.31;;;5.20;100.00
72409;BME280;60402;48.082;11.628;2024-03-22T06:07:48;95799.13;;;5.11;100.00
72409;BME280;60402;48.082;11.628;2024-03-22T06:10:34;95806.72;;;5.22;100.00
72409;BME280;60402;48.082;11.628;2024-03-22T06:13:20;95810.28;;;5.40;100.00
72409;BME280;60402;48.082;11.628;2024-03-22T06:16:06;95809.09;;;5.48;100.00
72409;BME280;60402;48.082;11.628;2024-03-22T06:18:51;95799.44;;;5.63;100.00
72409;BME280;60402;48.082;11.628;2024-03-22T06:21:37;95809.38;;;5.86;100.00
72409;BME280;60402;48.082;11.628;2024-03-22T06:24:23;95813.00;;;5.94;100.00
72409;BME280;60402;48.082;11.628;2024-03-22T06:27:08;95813.31;;;6.10;100.00
72409;BME280;60402;48.082;11.628;2024-03-22T06:29:54;95800.81;;;6.25;100.00
72409;BME280;60402;48.082;11.628;2024-03-22T06:32:40;95815.94;;;6.49;100.00
72409;BME280;60402;48.082;11.628;2024-03-22T06:35:25;95809.91;;;6.54;100.00
72409;BME280;60402;48.082;11.628;2024-03-22T06:38:11;95782.66;;;6.51;100.00
72409;BME280;60402;48.082;11.628;2024-03-22T06:40:57;95808.94;;;6.82;100.00
72409;BME280;60402;48.082;11.628;2024-03-22T06:43:44;95802.44;;;6.93;100.00
72409;BME280;60402;48.082;11.628;2024-03-22T06:46:30;95805.84;;;7.59;100.00
72409;BME280;60402;48.082;11.628;2024-03-22T06:49:15;95802.81;;;8.15;100.00
72409;BME280;60402;48.082;11.628;2024-03-22T06:52:01;95790.09;;;9.65;100.00
72409;BME280;60402;48.082;11.628;2024-03-22T06:54:47;95793.72;;;11.02;100.00
72409;BME280;60402;48.082;11.628;2024-03-22T06:57:32;95805.75;;;13.00;92.41
72409;BME280;60402;48.082;11.628;2024-03-22T07:00:19;95805.72;;;14.90;81.17
72409;BME280;60402;48.082;11.628;2024-03-22T07:03:05;95800.88;;;15.80;75.51
72409;BME280;60402;48.082;11.628;2024-03-22T07:05:50;95801.91;;;16.04;72.10
72409;BME280;60402;48.082;11.628;2024-03-22T07:08:36;95795.22;;;16.90;68.87
72409;BME280;60402;48.082;11.628;2024-03-22T07:11:21;95822.44;;;17.61;67.16
72409;BME280;60402;48.082;11.628;2024-03-22T07:14:07;95814.38;;;18.17;63.79
72409;BME280;60402;48.082;11.628;2024-03-22T07:16:53;95814.50;;;19.00;60.91
72409;BME280;60402;48.082;11.628;2024-03-22T07:19:39;95816.63;;;18.36;60.27
72409;BME280;60402;48.082;11.628;2024-03-22T07:22:25;95814.03;;;19.16;58.98
72409;BME280;60402;48.082;11.628;2024-03-22T07:25:11;95804.94;;;19.97;57.05
72409;BME280;60402;48.082;11.628;2024-03-22T07:27:57;95811.22;;;20.36;56.05
72409;BME280;60402;48.082;11.628;2024-03-22T07:30:42;95793.56;;;22.05;51.75
72409;BME280;60402;48.082;11.628;2024-03-22T07:33:28;95813.72;;;23.13;49.79
72409;BME280;60402;48.082;11.628;2024-03-22T07:36:15;95800.13;;;23.36;47.08
72409;BME280;60402;48.082;11.628;2024-03-22T07:39:02;95818.69;;;22.96;48.40
72409;BME280;60402;48.082;11.628;2024-03-22T07:41:49;95805.78;;;21.31;50.92
72409;BME280;60402;48.082;11.628;2024-03-22T07:44:35;95797.28;;;20.90;52.07
72409;BME280;60402;48.082;11.628;2024-03-22T07:47:21;95807.88;;;20.03;54.47
72409;BME280;60402;48.082;11.628;2024-03-22T07:50:06;95811.44;;;19.18;57.04
72409;BME280;60402;48.082;11.628;2024-03-22T07:52:52;95806.63;;;18.56;58.48
72409;BME280;60402;48.082;11.628;2024-03-22T07:55:38;95822.88;;;18.02;63.58
72409;BME280;60402;48.082;11.628;2024-03-22T07:58:23;95820.00;;;17.78;64.43
72409;BME280;60402;48.082;11.628;2024-03-22T08:01:09;95807.72;;;16.93;66.04
72409;BME280;60402;48.082;11.628;2024-03-22T08:03:55;95811.63;;;17.23;66.13
72409;BME280;60402;48.082;11.628;2024-03-22T08:06:40;95788.28;;;16.45;69.47
72409;BME280;60402;48.082;11.628;2024-03-22T08:09:26;95789.66;;;18.04;65.49
72409;BME280;60402;48.082;11.628;2024-03-22T08:12:12;95793.13;;;19.75;59.78
72409;BME280;60402;48.082;11.628;2024-03-22T08:14:57;95742.66;;;21.16;55.74
72409;BME280;60402;48.082;11.628;2024-03-22T08:17:43;95787.28;;;23.26;49.06
72409;BME280;60402;48.082;11.628;2024-03-22T08:20:28;95788.06;;;25.44;45.21
72409;BME280;60402;48.082;11.628;2024-03-22T08:23:15;95788.13;;;26.04;42.82
72409;BME280;60402;48.082;11.628;2024-03-22T08:26:03;95797.31;;;26.33;41.32
72409;BME280;60402;48.082;11.628;2024-03-22T08:28:49;95784.03;;;26.67;40.21
72409;BME280;60402;48.082;11.628;2024-03-22T08:31:37;95766.56;;;28.45;37.26
72409;BME280;60402;48.082;11.628;2024-03-22T08:34:23;95754.38;;;30.10;35.58
72409;BME280;60402;48.082;11.628;2024-03-22T08:37:08;95783.00;;;30.89;34.25
72409;BME280;60402;48.082;11.628;2024-03-22T08:39:54;95786.69;;;31.70;32.21
72409;BME280;60402;48.082;11.628;2024-03-22T08:42:40;95781.50;;;31.91;32.34
72409;BME280;60402;48.082;11.628;2024-03-22T08:45:25;95776.34;;;31.61;33.15
72409;BME280;60402;48.082;11.628;2024-03-22T08:48:11;95766.94;;;33.31;29.00
72409;BME280;60402;48.082;11.628;2024-03-22T08:50:57;95762.44;;;32.67;30.54
72409;BME280;60402;48.082;11.628;2024-03-22T08:53:43;95761.06;;;32.75;30.61
72409;BME280;60402;48.082;11.628;2024-03-22T08:56:28;95761.66;;;33.45;29.44
72409;BME280;60402;48.082;11.628;2024-03-22T08:59:14;95767.75;;;34.79;28.31
72409;BME280;60402;48.082;11.628;2024-03-22T09:02:00;95768.63;;;33.09;29.02
72409;BME280;60402;48.082;11.628;2024-03-22T09:04:45;95764.72;;;34.70;27.34
72409;BME280;60402;48.082;11.628;2024-03-22T09:07:32;95750.97;;;33.24;29.03
72409;BME280;60402;48.082;11.628;2024-03-22T09:10:17;95752.44;;;33.89;27.81
72409;BME280;60402;48.082;11.628;2024-03-22T09:13:03;95750.34;;;34.06;27.86
72409;BME280;60402;48.082;11.628;2024-03-22T09:15:56;95737.28;;;34.75;26.83
72409;BME280;60402;48.082;11.628;2024-03-22T09:18:41;95746.34;;;34.69;27.97
72409;BME280;60402;48.082;11.628;2024-03-22T09:21:27;95733.97;;;34.28;27.13
72409;BME280;60402;48.082;11.628;2024-03-22T09:24:13;95740.59;;;34.29;26.85
72409;BME280;60402;48.082;11.628;2024-03-22T09:26:59;95732.13;;;31.57;29.73
72409;BME280;60402;48.082;11.628;2024-03-22T09:29:44;95736.13;;;32.21;29.96
72409;BME280;60402;48.082;11.628;2024-03-22T09:32:30;95714.38;;;33.48;27.94
72409;BME280;60402;48.082;11.628;2024-03-22T09:35:16;95727.28;;;31.75;29.25
72409;BME280;60402;48.082;11.628;2024-03-22T09:38:03;95722.22;;;29.94;31.32
72409;BME280;60402;48.082;11.628;2024-03-22T09:40:49;95717.63;;;29.44;32.53
72409;BME280;60402;48.082;11.628;2024-03-22T09:43:39;95711.50;;;29.00;33.98
72409;BME280;60402;48.082;11.628;2024-03-22T09:46:25;95712.16;;;27.55;36.08
72409;BME280;60402;48.082;11.628;2024-03-22T09:49:12;95712.13;;;25.98;37.96
72409;BME280;60402;48.082;11.628;2024-03-22T09:51:58;95705.47;;;25.13;39.26
72409;BME280;60402;48.082;11.628;2024-03-22T09:54:44;95702.56;;;23.96;40.62
72409;BME280;60402;48.082;11.628;2024-03-22T09:57:30;95720.69;;;23.13;43.14
72409;BME280;60402;48.082;11.628;2024-03-22T10:00:18;95710.81;;;21.83;45.93
72409;BME280;60402;48.082;11.628;2024-03-22T10:03:06;95695.38;;;21.43;47.01
72409;BME280;60402;48.082;11.628;2024-03-22T10:05:51;95690.94;;;20.59;49.64
72409;BME280;60402;48.082;11.628;2024-03-22T10:08:38;95698.56;;;20.62;50.38
72409;BME280;60402;48.082;11.628;2024-03-22T10:11:26;95693.66;;;20.94;48.86
72409;BME280;60402;48.082;11.628;2024-03-22T10:14:12;95695.44;;;19.99;51.17
72409;BME280;60402;48.082;11.628;2024-03-22T10:16:57;95671.66;;;19.72;51.91
72409;BME280;60402;48.082;11.628;2024-03-22T10:19:43;95663.44;;;19.85;52.10
72409;BME280;60402;48.082;11.628;2024-03-22T10:22:29;95676.59;;;19.57;51.68
72409;BME280;60402;48.082;11.628;2024-03-22T10:25:16;95671.41;;;19.20;52.99
72409;BME280;60402;48.082;11.628;2024-03-22T10:28:01;95667.84;;;18.96;54.46
72409;BME280;60402;48.082;11.628;2024-03-22T10:30:49;95667.34;;;18.68;54.02
72409;BME280;60402;48.082;11.628;2024-03-22T10:33:36;95659.78;;;18.50;55.04
72409;BME280;60402;48.082;11.628;2024-03-22T10:36:23;95652.84;;;18.12;57.00
72409;BME280;60402;48.082;11.628;2024-03-22T10:39:10;95632.41;;;18.04;57.75
72409;BME280;60402;48.082;11.628;2024-03-22T10:41:58;95627.78;;;18.07;58.90
72409;BME280;60402;48.082;11.628;2024-03-22T10:44:44;95641.50;;;18.18;58.41
72409;BME280;60402;48.082;11.628;2024-03-22T10:47:31;95637.22;;;17.83;58.91
72409;BME280;60402;48.082;11.628;2024-03-22T10:50:18;95652.84;;;17.64;59.88
72409;BME280;60402;48.082;11.628;2024-03-22T10:53:07;95643.09;;;17.80;59.17
72409;BME280;60402;48.082;11.628;2024-03-22T10:55:55;95623.38;;;17.58;58.51
72409;BME280;60402;48.082;11.628;2024-03-22T10:58:45;95626.63;;;17.75;58.00
72409;BME280;60402;48.082;11.628;2024-03-22T11:01:31;95628.75;;;17.65;59.37
72409;BME280;60402;48.082;11.628;2024-03-22T11:04:22;95632.34;;;17.51;60.41
72409;BME280;60402;48.082;11.628;2024-03-22T11:07:20;95616.16;;;17.48;62.11
72409;BME280;60402;48.082;11.628;2024-03-22T11:10:06;95606.97;;;17.68;60.96
72409;BME280;60402;48.082;11.628;2024-03-22T11:12:53;95615.59;;;17.58;61.92
72409;BME280;60402;48.082;11.628;2024-03-22T11:15:38;95605.28;;;17.37;62.39
72409;BME280;60402;48.082;11.628;2024-03-22T11:18:24;95597.13;;;17.45;61.38
72409;BME280;60402;48.082;11.628;2024-03-22T11:21:09;95587.38;;;17.13;59.66
72409;BME280;60402;48.082;11.628;2024-03-22T11:23:55;95597.06;;;17.30;61.70
72409;BME280;60402;48.082;11.628;2024-03-22T11:26:41;95589.97;;;17.25;61.71
72409;BME280;60402;48.082;11.628;2024-03-22T11:29:29;95599.38;;;17.41;62.52
72409;BME280;60402;48.082;11.628;2024-03-22T11:32:15;95581.44;;;17.40;60.26
72409;BME280;60402;48.082;11.628;2024-03-22T11:35:01;95578.81;;;17.13;59.63
72409;BME280;60402;48.082;11.628;2024-03-22T11:37:46;95569.25;;;16.92;60.06
72409;BME280;60402;48.082;11.628;2024-03-22T11:40:32;95570.03;;;16.92;61.79
72409;BME280;60402;48.082;11.628;2024-03-22T11:43:20;95557.00;;;17.00;60.17
72409;BME280;60402;48.082;11.628;2024-03-22T11:46:06;95564.44;;;16.98;60.95
72409;BME280;60402;48.082;11.628;2024-03-22T11:48:52;95553.34;;;17.00;61.79
72409;BME280;60402;48.082;11.628;2024-03-22T11:51:38;95556.19;;;17.00;63.23
72409;BME280;60402;48.082;11.628;2024-03-22T11:54:25;95549.03;;;17.04;62.68
72409;BME280;60402;48.082;11.628;2024-03-22T11:57:10;95519.44;;;16.93;63.60
72409;BME280;60402;48.082;11.628;2024-03-22T11:59:59;95535.28;;;16.94;62.17
72409;BME280;60402;48.082;11.628;2024-03-22T12:02:45;95526.31;;;17.10;60.24
72409;BME280;60402;48.082;11.628;2024-03-22T12:05:31;95528.25;;;16.80;58.56
72409;BME280;60402;48.082;11.628;2024-03-22T12:08:20;95510.22;;;16.74;61.73
72409;BME280;60402;48.082;11.628;2024-03-22T12:11:10;95503.84;;;16.79;61.30
72409;BME280;60402;48.082;11.628;2024-03-22T12:13:55;95493.72;;;17.17;58.88
72409;BME280;60402;48.082;11.628;2024-03-22T12:16:41;95492.66;;;17.14;60.10
72409;BME280;60402;48.082;11.628;2024-03-22T12:19:27;95492.28;;;16.97;62.52
72409;BME280;60402;48.082;11.628;2024-03-22T12:22:13;95502.88;;;17.06;60.57
72409;BME280;60402;48.082;11.628;2024-03-22T12:24:58;95479.41;;;17.02;59.68
72409;BME280;60402;48.082;11.628;2024-03-22T12:27:46;95445.28;;;16.59;59.35
72409;BME280;60402;48.082;11.628;2024-03-22T12:30:32;95473.88;;;16.98;61.89
72409;BME280;60402;48.082;11.628;2024-03-22T12:33:19;95479.41;;;17.02;60.75
72409;BME280;60402;48.082;11.628;2024-03-22T12:36:05;95475.22;;;17.12;59.94
72409;BME280;60402;48.082;11.628;2024-03-22T12:38:51;95470.25;;;16.98;61.84
72409;BME280;60402;48.082;11.628;2024-03-22T12:41:36;95461.78;;;17.27;61.40
72409;BME280;60402;48.082;11.628;2024-03-22T12:44:22;95470.34;;;17.27;60.25
72409;BME280;60402;48.082;11.628;2024-03-22T12:47:08;95440.13;;;16.97;58.60
72409;BME280;60402;48.082;11.628;2024-03-22T12:49:54;95430.63;;;17.15;58.04
72409;BME280;60402;48.082;11.628;2024-03-22T12:52:40;95441.63;;;17.46;57.76
72409;BME280;60402;48.082;11.628;2024-03-22T12:55:25;95417.25;;;17.35;59.63
72409;BME280;60402;48.082;11.628;2024-03-22T12:58:11;95448.22;;;17.67;58.28
72409;BME280;60402;48.082;11.628;2024-03-22T13:00:57;95439.06;;;17.92;57.82
72409;BME280;60402;48.082;11.628;2024-03-22T13:03:43;95430.97;;;17.91;58.95
72409;BME280;60402;48.082;11.628;2024-03-22T13:06:29;95362.28;;;16.96;57.02
72409;BME280;60402;48.082;11.628;2024-03-22T13:09:14;95404.94;;;17.59;58.07
72409;BME280;60402;48.082;11.628;2024-03-22T13:12:01;95423.19;;;17.91;54.97
72409;BME280;60402;48.082;11.628;2024-03-22T13:14:46;95392.16;;;17.69;57.59
72409;BME280;60402;48.082;11.628;2024-03-22T13:17:33;95394.50;;;17.71;58.00
72409;BME280;60402;48.082;11.628;2024-03-22T13:20:18;95403.00;;;17.95;57.91
72409;BME280;60402;48.082;11.628;2024-03-22T13:23:05;95400.28;;;18.06;57.28
72409;BME280;60402;48.082;11.628;2024-03-22T13:25:51;95375.97;;;17.96;56.85
72409;BME280;60402;48.082;11.628;2024-03-22T13:28:37;95384.38;;;17.84;55.08
72409;BME280;60402;48.082;11.628;2024-03-22T13:31:22;95386.69;;;18.01;56.86
72409;BME280;60402;48.082;11.628;2024-03-22T13:34:08;95369.97;;;17.94;56.99
72409;BME280;60402;48.082;11.628;2024-03-22T13:36:54;95359.97;;;18.04;56.15
72409;BME280;60402;48.082;11.628;2024-03-22T13:39:39;95376.63;;;18.05;55.61
72409;BME280;60402;48.082;11.628;2024-03-22T13:42:25;95369.06;;;18.02;55.00
72409;BME280;60402;48.082;11.628;2024-03-22T13:45:11;95354.13;;;17.78;55.71
72409;BME280;60402;48.082;11.628;2024-03-22T13:47:58;95353.34;;;17.77;56.66
72409;BME280;60402;48.082;11.628;2024-03-22T13:50:43;95345.34;;;17.81;56.52
72409;BME280;60402;48.082;11.628;2024-03-22T13:53:29;95332.84;;;17.79;56.62
72409;BME280;60402;48.082;11.628;2024-03-22T13:56:15;95330.88;;;18.05;56.97
72409;BME280;60402;48.082;11.628;2024-03-22T13:59:00;95331.47;;;18.09;56.77
72409;BME280;60402;48.082;11.628;2024-03-22T14:01:47;95335.44;;;17.97;55.50
72409;BME280;60402;48.082;11.628;2024-03-22T14:04:32;95335.41;;;17.77;56.45
72409;BME280;60402;48.082;11.628;2024-03-22T14:07:18;95319.81;;;17.78;56.47
72409;BME280;60402;48.082;11.628;2024-03-22T14:10:04;95320.13;;;17.65;57.08
72409;BME280;60402;48.082;11.628;2024-03-22T14:12:51;95324.88;;;17.53;56.92
72409;BME280;60402;48.082;11.628;2024-03-22T14:15:36;95304.94;;;17.59;57.11
72409;BME280;60402;48.082;11.628;2024-03-22T14:18:22;95315.28;;;17.86;56.48
72409;BME280;60402;48.082;11.628;2024-03-22T14:21:08;95306.91;;;17.68;57.14
72409;BME280;60402;48.082;11.628;2024-03-22T14:23:54;95304.25;;;17.64;57.10
72409;BME280;60402;48.082;11.628;2024-03-22T14:26:40;95292.59;;;17.82;55.26
72409;BME280;60402;48.082;11.628;2024-03-22T14:29:29;95299.22;;;17.88;55.41